createdAt,value
2018-07-04T16:11:42.150Z,99550.00
2018-07-04T16:17:03.697Z,99551.00
2018-07-04T16:22:25.217Z,99561.00
2018-07-04T16:27:40.500Z,99562.00
2018-07-04T16:33:02.275Z,99554.00
2018-07-04T16:38:23.575Z,99557.00
2018-07-04T16:43:45.070Z,99549.00
2018-07-04T16:49:06.514Z,99555.00
2018-07-04T16:54:28.084Z,99554.00
2018-07-04T16:59:43.537Z,99548.00
2018-07-04T17:05:05.105Z,99542.00
2018-07-04T17:10:26.528Z,99542.00
2018-07-04T17:15:48.152Z,99540.00
2018-07-04T17:21:09.470Z,99541.00
2018-07-04T17:26:31.058Z,99546.00
2018-07-04T17:31:52.993Z,99552.00
2018-07-04T17:37:14.413Z,99550.00
2018-07-04T17:42:35.892Z,99545.00
2018-07-04T17:47:57.451Z,99540.00
2018-07-04T17:53:18.879Z,99540.00
2018-07-04T17:58:40.223Z,99543.00
2018-07-04T18:04:01.606Z,99536.00
2018-07-04T18:09:23.136Z,99538.00
2018-07-04T18:14:44.462Z,99536.00
2018-07-04T18:20:06.348Z,99531.00
2018-07-04T18:25:27.789Z,99532.00
2018-07-04T18:30:49.326Z,99538.00
2018-07-04T18:36:10.702Z,99539.00
2018-07-04T18:41:32.205Z,99533.00
2018-07-04T18:46:53.713Z,99538.00
2018-07-04T18:52:15.185Z,99539.00
2018-07-04T18:57:36.818Z,99544.00
2018-07-04T19:02:58.293Z,99552.00
2018-07-04T19:08:19.707Z,99555.00
2018-07-04T19:13:41.415Z,99557.00
2018-07-04T19:19:05.286Z,99560.00
2018-07-04T19:24:26.794Z,99563.00
2018-07-04T19:29:48.348Z,99566.00
2018-07-04T19:35:09.893Z,99566.00
2018-07-04T19:40:31.239Z,99567.00
2018-07-04T19:45:46.966Z,99569.00
2018-07-04T19:51:08.512Z,99577.00
2018-07-04T19:56:29.885Z,99586.00
2018-07-04T20:01:51.199Z,99597.00
2018-07-04T20:07:12.485Z,99601.00
2018-07-04T20:12:34.065Z,99596.00
2018-07-04T20:17:55.542Z,99600.00
2018-07-04T20:23:16.914Z,99607.00
2018-07-04T20:28:38.250Z,99603.00
2018-07-04T20:34:00.039Z,99600.00
2018-07-04T20:39:21.543Z,99589.00
2018-07-04T20:44:42.927Z,99588.00
2018-07-04T20:49:58.179Z,99592.00
2018-07-04T20:55:19.724Z,99598.00
2018-07-04T21:00:41.780Z,99596.00
2018-07-04T21:06:03.294Z,99599.00
2018-07-04T21:11:24.689Z,99592.00
2018-07-04T21:16:40.615Z,99587.00
2018-07-04T21:22:02.051Z,99593.00
2018-07-04T21:27:23.486Z,99597.00
2018-07-04T21:32:44.785Z,99592.00
2018-07-04T21:38:06.222Z,99588.00
2018-07-04T21:43:27.537Z,99585.00
2018-07-04T21:48:49.228Z,99584.00
2018-07-04T21:54:10.749Z,99579.00
2018-07-04T21:59:32.577Z,99589.00
2018-07-04T22:04:54.066Z,99591.00
2018-07-04T22:10:15.334Z,99588.00
2018-07-04T22:15:36.714Z,99588.00
2018-07-04T22:20:58.166Z,99588.00
2018-07-04T22:26:19.656Z,99593.00
2018-07-04T22:31:41.010Z,99594.00
2018-07-04T22:36:56.440Z,99591.00
2018-07-04T22:42:18.124Z,99588.00
2018-07-04T22:47:33.607Z,99585.00
2018-07-04T22:52:54.994Z,99589.00
2018-07-04T22:58:16.477Z,99590.00
2018-07-04T23:03:37.822Z,99589.00
2018-07-04T23:08:59.392Z,99588.00
2018-07-04T23:14:20.845Z,99583.00
2018-07-04T23:19:42.271Z,99582.00
2018-07-04T23:25:03.598Z,99579.00
2018-07-04T23:30:25.417Z,99578.00
2018-07-04T23:35:46.766Z,99578.00
2018-07-04T23:41:02.428Z,99572.00
2018-07-04T23:46:23.984Z,99578.00
2018-07-04T23:51:45.421Z,99581.00
2018-07-04T23:57:06.678Z,99579.00
